sensor_id;sensor_type;location;lat;lon;timestamp;P1;durP1;ratioP1;P2;durP2;ratioP2
44987;SDS011;35735;52.226;21.254;2023-01-30T00:00:39;26.15;;;18.50;;
44987;SDS011;35735;52.226;21.254;2023-01-30T00:05:40;27.23;;;17.83;;
44987;SDS011;35735;52.226;21.254;2023-01-30T00:10:41;26.00;;;17.50;;
44987;SDS011;35735;52.226;21.254;2023-01-30T00:15:42;26.45;;;17.75;;
44987;SDS011;35735;52.226;21.254;2023-01-30T00:20:43;25.30;;;17.35;;
44987;SDS011;35735;52.226;21.254;2023-01-30T00:25:44;25.48;;;16.20;;
44987;SDS011;35735;52.226;21.254;2023-01-30T00:30:47;23.02;;;16.37;;
44987;SDS011;35735;52.226;21.254;2023-01-30T00:35:54;22.92;;;16.50;;
44987;SDS011;35735;52.226;21.254;2023-01-30T00:40:56;21.80;;;15.15;;
44987;SDS011;35735;52.226;21.254;2023-01-30T00:45:59;20.55;;;14.52;;
44987;SDS011;35735;52.226;21.254;2023-01-30T00:51:05;21.12;;;14.27;;
44987;SDS011;35735;52.226;21.254;2023-01-30T00:56:05;21.65;;;15.02;;
44987;SDS011;35735;52.226;21.254;2023-01-30T01:01:06;19.17;;;13.43;;
44987;SDS011;35735;52.226;21.254;2023-01-30T01:06:07;20.75;;;13.82;;
44987;SDS011;35735;52.226;21.254;2023-01-30T01:11:07;18.58;;;13.57;;
44987;SDS011;35735;52.226;21.254;2023-01-30T01:16:08;18.87;;;13.05;;
44987;SDS011;35735;52.226;21.254;2023-01-30T01:21:08;19.42;;;13.07;;
44987;SDS011;35735;52.226;21.254;2023-01-30T01:26:09;20.12;;;13.38;;
44987;SDS011;35735;52.226;21.254;2023-01-30T01:31:10;18.52;;;12.63;;
44987;SDS011;35735;52.226;21.254;2023-01-30T01:36:12;17.00;;;12.85;;
44987;SDS011;35735;52.226;21.254;2023-01-30T01:41:13;16.70;;;12.20;;
44987;SDS011;35735;52.226;21.254;2023-01-30T01:46:23;16.87;;;11.82;;
44987;SDS011;35735;52.226;21.254;2023-01-30T01:51:35;14.07;;;10.55;;
44987;SDS011;35735;52.226;21.254;2023-01-30T01:56:47;14.45;;;10.73;;
44987;SDS011;35735;52.226;21.254;2023-01-30T02:01:49;14.75;;;10.73;;
44987;SDS011;35735;52.226;21.254;2023-01-30T02:06:50;14.23;;;9.80;;
44987;SDS011;35735;52.226;21.254;2023-01-30T02:11:51;13.02;;;9.35;;
44987;SDS011;35735;52.226;21.254;2023-01-30T02:17:00;12.65;;;8.93;;
44987;SDS011;35735;52.226;21.254;2023-01-30T02:22:14;13.60;;;9.45;;
44987;SDS011;35735;52.226;21.254;2023-01-30T02:33:16;11.88;;;8.80;;
44987;SDS011;35735;52.226;21.254;2023-01-30T02:49:37;12.30;;;9.65;;
44987;SDS011;35735;52.226;21.254;2023-01-30T02:54:41;12.93;;;9.57;;
44987;SDS011;35735;52.226;21.254;2023-01-30T02:59:42;14.40;;;9.63;;
44987;SDS011;35735;52.226;21.254;2023-01-30T03:15:49;14.02;;;8.57;;
44987;SDS011;35735;52.226;21.254;2023-01-30T03:21:04;15.50;;;9.35;;
44987;SDS011;35735;52.226;21.254;2023-01-30T03:26:07;10.90;;;8.27;;
44987;SDS011;35735;52.226;21.254;2023-01-30T03:31:15;10.07;;;7.97;;
44987;SDS011;35735;52.226;21.254;2023-01-30T03:36:16;14.30;;;9.23;;
44987;SDS011;35735;52.226;21.254;2023-01-30T03:41:20;13.95;;;9.40;;
44987;SDS011;35735;52.226;21.254;2023-01-30T03:46:20;12.75;;;8.93;;
44987;SDS011;35735;52.226;21.254;2023-01-30T03:51:21;16.08;;;10.32;;
44987;SDS011;35735;52.226;21.254;2023-01-30T03:56:22;13.70;;;9.30;;
44987;SDS011;35735;52.226;21.254;2023-01-30T04:01:22;16.62;;;10.73;;
44987;SDS011;35735;52.226;21.254;2023-01-30T04:06:23;14.70;;;10.15;;
44987;SDS011;35735;52.226;21.254;2023-01-30T04:11:24;17.40;;;11.20;;
44987;SDS011;35735;52.226;21.254;2023-01-30T04:16:25;15.52;;;10.27;;
44987;SDS011;35735;52.226;21.254;2023-01-30T04:21:26;16.98;;;11.60;;
44987;SDS011;35735;52.226;21.254;2023-01-30T04:26:27;16.73;;;11.15;;
44987;SDS011;35735;52.226;21.254;2023-01-30T04:31:29;19.48;;;11.60;;
44987;SDS011;35735;52.226;21.254;2023-01-30T04:36:30;15.45;;;10.52;;
44987;SDS011;35735;52.226;21.254;2023-01-30T04:41:31;18.10;;;11.85;;
44987;SDS011;35735;52.226;21.254;2023-01-30T04:46:31;15.35;;;10.48;;
44987;SDS011;35735;52.226;21.254;2023-01-30T04:51:32;17.98;;;11.40;;
44987;SDS011;35735;52.226;21.254;2023-01-30T04:56:33;16.30;;;11.07;;
44987;SDS011;35735;52.226;21.254;2023-01-30T05:01:34;15.23;;;9.98;;
44987;SDS011;35735;52.226;21.254;2023-01-30T05:06:43;14.57;;;9.75;;
44987;SDS011;35735;52.226;21.254;2023-01-30T05:11:44;13.35;;;9.05;;
44987;SDS011;35735;52.226;21.254;2023-01-30T05:16:45;13.13;;;9.05;;
44987;SDS011;35735;52.226;21.254;2023-01-30T05:21:45;16.25;;;10.65;;
44987;SDS011;35735;52.226;21.254;2023-01-30T05:26:46;17.60;;;11.80;;
44987;SDS011;35735;52.226;21.254;2023-01-30T05:31:47;12.85;;;8.43;;
44987;SDS011;35735;52.226;21.254;2023-01-30T05:36:47;11.57;;;8.35;;
44987;SDS011;35735;52.226;21.254;2023-01-30T05:41:48;11.63;;;7.35;;
44987;SDS011;35735;52.226;21.254;2023-01-30T05:46:48;13.38;;;8.55;;
44987;SDS011;35735;52.226;21.254;2023-01-30T05:51:49;13.02;;;9.00;;
44987;SDS011;35735;52.226;21.254;2023-01-30T05:56:50;12.50;;;8.73;;
44987;SDS011;35735;52.226;21.254;2023-01-30T06:01:50;14.02;;;9.13;;
44987;SDS011;35735;52.226;21.254;2023-01-30T06:06:51;14.45;;;9.57;;
44987;SDS011;35735;52.226;21.254;2023-01-30T06:11:54;15.50;;;9.80;;
44987;SDS011;35735;52.226;21.254;2023-01-30T06:16:55;12.20;;;8.27;;
44987;SDS011;35735;52.226;21.254;2023-01-30T06:21:55;11.88;;;8.45;;
44987;SDS011;35735;52.226;21.254;2023-01-30T06:26:59;12.32;;;8.90;;
44987;SDS011;35735;52.226;21.254;2023-01-30T06:31:59;15.15;;;9.80;;
44987;SDS011;35735;52.226;21.254;2023-01-30T06:37:00;16.20;;;9.20;;
44987;SDS011;35735;52.226;21.254;2023-01-30T06:42:00;13.45;;;9.25;;
44987;SDS011;35735;52.226;21.254;2023-01-30T06:47:01;11.77;;;8.40;;
44987;SDS011;35735;52.226;21.254;2023-01-30T06:52:04;16.20;;;10.20;;
44987;SDS011;35735;52.226;21.254;2023-01-30T06:57:09;15.05;;;10.23;;
44987;SDS011;35735;52.226;21.254;2023-01-30T07:02:10;12.75;;;8.95;;
44987;SDS011;35735;52.226;21.254;2023-01-30T07:07:12;14.90;;;9.77;;
44987;SDS011;35735;52.226;21.254;2023-01-30T07:12:12;12.82;;;9.50;;
44987;SDS011;35735;52.226;21.254;2023-01-30T07:17:13;14.77;;;9.95;;
44987;SDS011;35735;52.226;21.254;2023-01-30T07:22:14;17.85;;;11.05;;
44987;SDS011;35735;52.226;21.254;2023-01-30T07:27:17;14.50;;;9.95;;
44987;SDS011;35735;52.226;21.254;2023-01-30T07:32:18;15.77;;;9.98;;
44987;SDS011;35735;52.226;21.254;2023-01-30T07:37:19;16.25;;;10.80;;
44987;SDS011;35735;52.226;21.254;2023-01-30T07:42:19;15.82;;;10.50;;
44987;SDS011;35735;52.226;21.254;2023-01-30T07:47:20;17.75;;;11.23;;
44987;SDS011;35735;52.226;21.254;2023-01-30T07:52:20;19.12;;;11.93;;
44987;SDS011;35735;52.226;21.254;2023-01-30T07:57:21;23.17;;;11.98;;
44987;SDS011;35735;52.226;21.254;2023-01-30T08:02:21;18.02;;;12.15;;
44987;SDS011;35735;52.226;21.254;2023-01-30T08:07:22;16.77;;;11.85;;
44987;SDS011;35735;52.226;21.254;2023-01-30T08:12:23;17.48;;;12.37;;
44987;SDS011;35735;52.226;21.254;2023-01-30T08:17:23;20.98;;;13.50;;
44987;SDS011;35735;52.226;21.254;2023-01-30T08:22:24;19.37;;;12.45;;
44987;SDS011;35735;52.226;21.254;2023-01-30T08:27:24;23.42;;;13.98;;
44987;SDS011;35735;52.226;21.254;2023-01-30T08:32:25;21.20;;;13.88;;
44987;SDS011;35735;52.226;21.254;2023-01-30T08:37:26;20.52;;;14.55;;
44987;SDS011;35735;52.226;21.254;2023-01-30T08:42:26;24.08;;;15.93;;
44987;SDS011;35735;52.226;21.254;2023-01-30T08:47:27;23.42;;;15.30;;
44987;SDS011;35735;52.226;21.254;2023-01-30T08:52:27;24.87;;;15.98;;
44987;SDS011;35735;52.226;21.254;2023-01-30T08:57:28;26.25;;;16.62;;
44987;SDS011;35735;52.226;21.254;2023-01-30T09:02:28;25.10;;;16.17;;
44987;SDS011;35735;52.226;21.254;2023-01-30T09:07:29;25.15;;;15.20;;
44987;SDS011;35735;52.226;21.254;2023-01-30T09:12:30;26.40;;;16.75;;
44987;SDS011;35735;52.226;21.254;2023-01-30T09:17:30;26.48;;;16.62;;
44987;SDS011;35735;52.226;21.254;2023-01-30T09:22:31;24.10;;;16.55;;
44987;SDS011;35735;52.226;21.254;2023-01-30T09:27:31;23.83;;;15.82;;
44987;SDS011;35735;52.226;21.254;2023-01-30T09:32:32;26.37;;;17.00;;
44987;SDS011;35735;52.226;21.254;2023-01-30T09:37:33;25.90;;;16.73;;
44987;SDS011;35735;52.226;21.254;2023-01-30T09:42:37;24.80;;;16.45;;
44987;SDS011;35735;52.226;21.254;2023-01-30T09:58:44;24.05;;;15.80;;
44987;SDS011;35735;52.226;21.254;2023-01-30T10:04:04;22.20;;;14.82;;
44987;SDS011;35735;52.226;21.254;2023-01-30T10:09:54;21.00;;;14.20;;
44987;SDS011;35735;52.226;21.254;2023-01-30T10:15:21;20.65;;;14.10;;
44987;SDS011;35735;52.226;21.254;2023-01-30T10:20:44;19.35;;;13.73;;
44987;SDS011;35735;52.226;21.254;2023-01-30T10:26:11;22.27;;;14.18;;
44987;SDS011;35735;52.226;21.254;2023-01-30T10:31:17;18.65;;;13.88;;
44987;SDS011;35735;52.226;21.254;2023-01-30T10:36:21;19.52;;;13.52;;
44987;SDS011;35735;52.226;21.254;2023-01-30T10:47:05;22.05;;;13.18;;
44987;SDS011;35735;52.226;21.254;2023-01-30T10:52:23;18.20;;;12.80;;
44987;SDS011;35735;52.226;21.254;2023-01-30T11:03:44;17.60;;;11.82;;
44987;SDS011;35735;52.226;21.254;2023-01-30T11:08:50;22.95;;;14.45;;
44987;SDS011;35735;52.226;21.254;2023-01-30T11:14:06;20.45;;;13.90;;
44987;SDS011;35735;52.226;21.254;2023-01-30T11:19:09;21.98;;;13.30;;
44987;SDS011;35735;52.226;21.254;2023-01-30T11:24:14;17.52;;;12.68;;
44987;SDS011;35735;52.226;21.254;2023-01-30T11:29:28;16.70;;;11.40;;
44987;SDS011;35735;52.226;21.254;2023-01-30T11:34:31;19.33;;;12.93;;
44987;SDS011;35735;52.226;21.254;2023-01-30T11:39:32;16.80;;;12.80;;
44987;SDS011;35735;52.226;21.254;2023-01-30T11:44:35;16.05;;;11.70;;
44987;SDS011;35735;52.226;21.254;2023-01-30T11:49:38;15.52;;;10.73;;
44987;SDS011;35735;52.226;21.254;2023-01-30T11:54:43;14.07;;;10.13;;
44987;SDS011;35735;52.226;21.254;2023-01-30T11:59:45;17.25;;;11.27;;
44987;SDS011;35735;52.226;21.254;2023-01-30T12:05:18;14.73;;;10.02;;
44987;SDS011;35735;52.226;21.254;2023-01-30T12:10:30;14.50;;;10.00;;
44987;SDS011;35735;52.226;21.254;2023-01-30T12:15:31;15.43;;;10.00;;
44987;SDS011;35735;52.226;21.254;2023-01-30T12:20:48;12.85;;;9.40;;
44987;SDS011;35735;52.226;21.254;2023-01-30T12:26:03;14.75;;;10.00;;
44987;SDS011;35735;52.226;21.254;2023-01-30T12:53:30;12.40;;;9.75;;
44987;SDS011;35735;52.226;21.254;2023-01-30T13:09:47;13.82;;;9.82;;
44987;SDS011;35735;52.226;21.254;2023-01-30T13:15:21;14.70;;;9.88;;
44987;SDS011;35735;52.226;21.254;2023-01-30T13:26:14;14.55;;;9.60;;
44987;SDS011;35735;52.226;21.254;2023-01-30T13:31:19;13.02;;;9.93;;
44987;SDS011;35735;52.226;21.254;2023-01-30T13:36:26;17.10;;;10.38;;
44987;SDS011;35735;52.226;21.254;2023-01-30T13:41:40;13.55;;;9.38;;
44987;SDS011;35735;52.226;21.254;2023-01-30T13:46:46;13.93;;;9.80;;
44987;SDS011;35735;52.226;21.254;2023-01-30T13:57:15;15.88;;;10.70;;
44987;SDS011;35735;52.226;21.254;2023-01-30T14:02:32;16.85;;;11.57;;
44987;SDS011;35735;52.226;21.254;2023-01-30T14:07:32;17.60;;;12.15;;
44987;SDS011;35735;52.226;21.254;2023-01-30T14:12:47;18.02;;;12.20;;
44987;SDS011;35735;52.226;21.254;2023-01-30T14:23:18;17.20;;;12.43;;
44987;SDS011;35735;52.226;21.254;2023-01-30T14:33:32;17.12;;;11.50;;
44987;SDS011;35735;52.226;21.254;2023-01-30T14:38:55;18.70;;;12.35;;
44987;SDS011;35735;52.226;21.254;2023-01-30T14:43:56;16.85;;;11.18;;
44987;SDS011;35735;52.226;21.254;2023-01-30T14:49:03;17.37;;;11.75;;
44987;SDS011;35735;52.226;21.254;2023-01-30T14:54:19;15.70;;;11.18;;
44987;SDS011;35735;52.226;21.254;2023-01-30T14:59:39;17.25;;;11.75;;
44987;SDS011;35735;52.226;21.254;2023-01-30T15:04:53;15.73;;;11.68;;
44987;SDS011;35735;52.226;21.254;2023-01-30T15:10:03;15.32;;;11.27;;
44987;SDS011;35735;52.226;21.254;2023-01-30T15:15:33;16.80;;;10.82;;
44987;SDS011;35735;52.226;21.254;2023-01-30T15:31:37;18.40;;;12.80;;
44987;SDS011;35735;52.226;21.254;2023-01-30T15:36:38;18.90;;;12.50;;
44987;SDS011;35735;52.226;21.254;2023-01-30T15:41:38;17.35;;;12.40;;
44987;SDS011;35735;52.226;21.254;2023-01-30T15:47:02;18.70;;;12.77;;
44987;SDS011;35735;52.226;21.254;2023-01-30T15:52:18;20.60;;;12.57;;
44987;SDS011;35735;52.226;21.254;2023-01-30T15:57:25;20.05;;;13.10;;
44987;SDS011;35735;52.226;21.254;2023-01-30T16:02:33;17.20;;;12.82;;
44987;SDS011;35735;52.226;21.254;2023-01-30T16:07:35;20.67;;;12.75;;
44987;SDS011;35735;52.226;21.254;2023-01-30T16:12:36;17.37;;;12.80;;
44987;SDS011;35735;52.226;21.254;2023-01-30T16:17:36;19.23;;;12.25;;
44987;SDS011;35735;52.226;21.254;2023-01-30T16:22:40;20.48;;;12.55;;
44987;SDS011;35735;52.226;21.254;2023-01-30T16:27:44;18.05;;;12.00;;
44987;SDS011;35735;52.226;21.254;2023-01-30T16:32:45;17.73;;;11.95;;
44987;SDS011;35735;52.226;21.254;2023-01-30T16:37:46;15.57;;;10.35;;
44987;SDS011;35735;52.226;21.254;2023-01-30T16:53:19;18.97;;;11.50;;
44987;SDS011;35735;52.226;21.254;2023-01-30T16:58:20;17.77;;;10.65;;
44987;SDS011;35735;52.226;21.254;2023-01-30T17:03:22;15.68;;;10.32;;
44987;SDS011;35735;52.226;21.254;2023-01-30T17:13:33;17.33;;;11.60;;
44987;SDS011;35735;52.226;21.254;2023-01-30T17:18:39;17.87;;;11.60;;
44987;SDS011;35735;52.226;21.254;2023-01-30T17:23:47;16.25;;;10.30;;
44987;SDS011;35735;52.226;21.254;2023-01-30T17:29:12;15.77;;;10.60;;
44987;SDS011;35735;52.226;21.254;2023-01-30T17:34:13;15.50;;;10.57;;
44987;SDS011;35735;52.226;21.254;2023-01-30T17:39:15;16.85;;;11.18;;
44987;SDS011;35735;52.226;21.254;2023-01-30T17:44:18;17.48;;;11.07;;
44987;SDS011;35735;52.226;21.254;2023-01-30T17:49:19;17.50;;;10.57;;
44987;SDS011;35735;52.226;21.254;2023-01-30T17:54:24;16.62;;;10.75;;
44987;SDS011;35735;52.226;21.254;2023-01-30T17:59:25;15.60;;;9.65;;
44987;SDS011;35735;52.226;21.254;2023-01-30T18:04:26;12.70;;;8.68;;
44987;SDS011;35735;52.226;21.254;2023-01-30T18:09:26;15.70;;;10.10;;
44987;SDS011;35735;52.226;21.254;2023-01-30T18:14:27;12.48;;;8.82;;
44987;SDS011;35735;52.226;21.254;2023-01-30T18:19:28;14.73;;;9.00;;
44987;SDS011;35735;52.226;21.254;2023-01-30T18:24:28;11.90;;;8.50;;
44987;SDS011;35735;52.226;21.254;2023-01-30T18:29:29;12.30;;;8.65;;
44987;SDS011;35735;52.226;21.254;2023-01-30T18:34:30;12.48;;;9.57;;
44987;SDS011;35735;52.226;21.254;2023-01-30T18:39:31;12.88;;;8.95;;
44987;SDS011;35735;52.226;21.254;2023-01-30T18:44:32;11.68;;;8.07;;
44987;SDS011;35735;52.226;21.254;2023-01-30T18:49:32;13.07;;;8.13;;
44987;SDS011;35735;52.226;21.254;2023-01-30T18:54:33;14.55;;;8.95;;
44987;SDS011;35735;52.226;21.254;2023-01-30T18:59:36;10.95;;;7.57;;
44987;SDS011;35735;52.226;21.254;2023-01-30T19:04:37;10.52;;;7.05;;
44987;SDS011;35735;52.226;21.254;2023-01-30T19:09:38;11.00;;;7.30;;
44987;SDS011;35735;52.226;21.254;2023-01-30T19:14:38;11.02;;;7.93;;
44987;SDS011;35735;52.226;21.254;2023-01-30T19:19:41;12.45;;;7.37;;
44987;SDS011;35735;52.226;21.254;2023-01-30T19:24:42;10.27;;;7.40;;
44987;SDS011;35735;52.226;21.254;2023-01-30T19:29:43;12.80;;;7.80;;
44987;SDS011;35735;52.226;21.254;2023-01-30T19:34:43;9.43;;;6.80;;
44987;SDS011;35735;52.226;21.254;2023-01-30T19:39:44;14.52;;;8.07;;
44987;SDS011;35735;52.226;21.254;2023-01-30T19:44:44;11.12;;;7.18;;
44987;SDS011;35735;52.226;21.254;2023-01-30T19:49:45;11.63;;;7.95;;
44987;SDS011;35735;52.226;21.254;2023-01-30T19:54:46;13.85;;;7.20;;
44987;SDS011;35735;52.226;21.254;2023-01-30T19:59:47;11.43;;;7.60;;
44987;SDS011;35735;52.226;21.254;2023-01-30T20:04:47;14.57;;;8.18;;
44987;SDS011;35735;52.226;21.254;2023-01-30T20:09:48;12.30;;;7.93;;
44987;SDS011;35735;52.226;21.254;2023-01-30T20:14:48;14.27;;;8.38;;
44987;SDS011;35735;52.226;21.254;2023-01-30T20:19:49;14.57;;;8.20;;
44987;SDS011;35735;52.226;21.254;2023-01-30T20:24:50;14.48;;;7.93;;
44987;SDS011;35735;52.226;21.254;2023-01-30T20:29:53;13.02;;;7.50;;
44987;SDS011;35735;52.226;21.254;2023-01-30T20:34:54;11.98;;;6.68;;
44987;SDS011;35735;52.226;21.254;2023-01-30T20:39:54;10.55;;;6.70;;
44987;SDS011;35735;52.226;21.254;2023-01-30T20:44:55;12.73;;;7.28;;
44987;SDS011;35735;52.226;21.254;2023-01-30T20:49:56;12.73;;;7.22;;
44987;SDS011;35735;52.226;21.254;2023-01-30T20:54:56;10.32;;;6.87;;
44987;SDS011;35735;52.226;21.254;2023-01-30T20:59:57;11.00;;;7.07;;
44987;SDS011;35735;52.226;21.254;2023-01-30T21:04:57;10.35;;;7.25;;
44987;SDS011;35735;52.226;21.254;2023-01-30T21:09:58;10.00;;;6.43;;
44987;SDS011;35735;52.226;21.254;2023-01-30T21:14:59;12.25;;;6.85;;
44987;SDS011;35735;52.226;21.254;2023-01-30T21:19:59;11.12;;;6.93;;
44987;SDS011;35735;52.226;21.254;2023-01-30T21:25:00;10.15;;;5.93;;
44987;SDS011;35735;52.226;21.254;2023-01-30T21:30:00;10.90;;;6.12;;
44987;SDS011;35735;52.226;21.254;2023-01-30T21:35:01;10.50;;;6.22;;
44987;SDS011;35735;52.226;21.254;2023-01-30T21:40:02;10.82;;;6.37;;
44987;SDS011;35735;52.226;21.254;2023-01-30T21:45:03;9.85;;;5.82;;
44987;SDS011;35735;52.226;21.254;2023-01-30T21:50:05;10.35;;;6.32;;
44987;SDS011;35735;52.226;21.254;2023-01-30T21:55:06;10.55;;;6.07;;
44987;SDS011;35735;52.226;21.254;2023-01-30T22:00:07;9.20;;;5.62;;
44987;SDS011;35735;52.226;21.254;2023-01-30T22:05:08;8.77;;;5.37;;
44987;SDS011;35735;52.226;21.254;2023-01-30T22:10:10;8.02;;;5.60;;
44987;SDS011;35735;52.226;21.254;2023-01-30T22:15:10;7.80;;;5.87;;
44987;SDS011;35735;52.226;21.254;2023-01-30T22:20:14;10.70;;;6.87;;
44987;SDS011;35735;52.226;21.254;2023-01-30T22:25:15;9.48;;;5.87;;
44987;SDS011;35735;52.226;21.254;2023-01-30T22:30:16;8.88;;;5.85;;
44987;SDS011;35735;52.226;21.254;2023-01-30T22:35:17;8.95;;;6.00;;
44987;SDS011;35735;52.226;21.254;2023-01-30T22:40:17;9.15;;;5.90;;
44987;SDS011;35735;52.226;21.254;2023-01-30T22:45:18;9.10;;;6.40;;
44987;SDS011;35735;52.226;21.254;2023-01-30T22:50:19;9.88;;;5.75;;
44987;SDS011;35735;52.226;21.254;2023-01-30T22:55:19;7.65;;;5.22;;
44987;SDS011;35735;52.226;21.254;2023-01-30T23:00:20;8.88;;;5.30;;
44987;SDS011;35735;52.226;21.254;2023-01-30T23:05:21;11.63;;;5.90;;
44987;SDS011;35735;52.226;21.254;2023-01-30T23:10:21;9.15;;;5.18;;
44987;SDS011;35735;52.226;21.254;2023-01-30T23:15:22;8.52;;;5.45;;
44987;SDS011;35735;52.226;21.254;2023-01-30T23:20:22;8.02;;;4.78;;
44987;SDS011;35735;52.226;21.254;2023-01-30T23:25:23;11.15;;;5.30;;
44987;SDS011;35735;52.226;21.254;2023-01-30T23:30:24;12.00;;;5.60;;
44987;SDS011;35735;52.226;21.254;2023-01-30T23:35:24;9.07;;;5.20;;
44987;SDS011;35735;52.226;21.254;2023-01-30T23:40:25;13.02;;;5.43;;
44987;SDS011;35735;52.226;21.254;2023-01-30T23:45:26;6.85;;;5.00;;
44987;SDS011;35735;52.226;21.254;2023-01-30T23:50:27;8.93;;;5.40;;
44987;SDS011;35735;52.226;21.254;2023-01-30T23:55:28;9.75;;;5.05;;
